createdAt,value
2022-09-18T09:54:24.497Z,97831.16
2022-09-18T09:59:39.771Z,97831.06
2022-09-18T10:05:07.990Z,97831.91
2022-09-18T10:10:23.507Z,97826.00
2022-09-18T10:15:38.637Z,97833.72
2022-09-18T10:20:48.386Z,97846.16
2022-09-18T10:25:59.708Z,97839.84
2022-09-18T10:31:12.444Z,97836.38
2022-09-18T10:36:28.716Z,97840.94
2022-09-18T10:41:38.142Z,97834.34
2022-09-18T10:46:59.268Z,97844.63
2022-09-18T10:52:36.094Z,97833.84
2022-09-18T10:57:48.780Z,97844.25
2022-09-18T11:03:01.834Z,97842.56
2022-09-18T11:08:19.462Z,97843.78
2022-09-18T11:13:28.794Z,97829.97
2022-09-18T11:18:36.880Z,97834.53
2022-09-18T11:23:44.208Z,97833.78
2022-09-18T11:29:06.614Z,97828.78
2022-09-18T11:34:26.870Z,97848.50
2022-09-18T11:39:43.120Z,97845.53
2022-09-18T11:44:51.650Z,97843.66
2022-09-18T11:50:07.011Z,97826.66
2022-09-18T11:55:21.835Z,97820.06
2022-09-18T12:00:31.761Z,97811.09
2022-09-18T12:05:52.578Z,97814.47
2022-09-18T12:11:05.019Z,97822.06
2022-09-18T12:16:17.570Z,97819.91
2022-09-18T12:21:44.666Z,97813.00
2022-09-18T12:27:04.169Z,97807.78
2022-09-18T12:32:24.668Z,97802.34
2022-09-18T12:37:55.677Z,97791.03
2022-09-18T12:43:18.722Z,97792.19
2022-09-18T12:48:41.197Z,97789.50
2022-09-18T12:53:56.665Z,97783.78
2022-09-18T12:59:24.305Z,97771.03
2022-09-18T13:04:32.521Z,97779.00
2022-09-18T13:09:46.253Z,97792.56
2022-09-18T13:14:56.903Z,97796.78
2022-09-18T13:20:08.646Z,97798.47
2022-09-18T13:25:26.070Z,97793.31
2022-09-18T13:30:32.278Z,97813.66
2022-09-18T13:35:40.436Z,97790.31
2022-09-18T13:40:49.836Z,97804.47
2022-09-18T13:45:56.715Z,97793.34
2022-09-18T13:51:04.286Z,97845.13
2022-09-18T13:56:12.951Z,97818.25
2022-09-18T14:01:58.522Z,97820.75
2022-09-18T14:07:03.444Z,97803.47
2022-09-18T14:12:18.097Z,97804.13
2022-09-18T14:17:23.207Z,97808.31
2022-09-18T14:22:32.671Z,97815.38
2022-09-18T14:27:53.646Z,97839.38
2022-09-18T14:33:18.869Z,97845.94
2022-09-18T14:38:30.511Z,97840.69
2022-09-18T14:43:40.632Z,97838.16
2022-09-18T14:48:45.516Z,97841.50
2022-09-18T14:53:53.048Z,97838.72
2022-09-18T14:59:03.306Z,97822.91
2022-09-18T15:04:15.465Z,97827.56
2022-09-18T15:09:28.599Z,97816.09
2022-09-18T15:14:43.951Z,97834.81
2022-09-18T15:20:01.251Z,97812.84
2022-09-18T15:25:06.340Z,97813.84
2022-09-18T15:30:20.003Z,97813.03
2022-09-18T15:35:26.485Z,97816.53
2022-09-18T15:40:34.141Z,97800.44
2022-09-18T15:45:41.760Z,97796.06
2022-09-18T15:50:46.535Z,97801.28
2022-09-18T15:55:58.241Z,97782.34
2022-09-18T16:01:06.996Z,97790.75
2022-09-18T16:06:24.113Z,97776.19
2022-09-18T16:11:44.692Z,97759.09
2022-09-18T16:16:52.139Z,97753.88
2022-09-18T16:21:57.355Z,97751.72
2022-09-18T16:27:07.375Z,97726.72
2022-09-18T16:32:15.572Z,97738.31
2022-09-18T16:37:23.324Z,97749.72
2022-09-18T16:42:28.036Z,97754.53
2022-09-18T16:47:35.417Z,97749.34
2022-09-18T16:52:40.363Z,97753.03
2022-09-18T16:57:45.497Z,97750.16
2022-09-18T17:02:54.100Z,97747.66
2022-09-18T17:07:59.066Z,97759.69
2022-09-18T17:13:04.150Z,97763.53
2022-09-18T17:18:11.982Z,97751.81
2022-09-18T17:23:16.933Z,97763.03
2022-09-18T17:28:21.928Z,97765.66
2022-09-18T17:33:29.346Z,97755.25
2022-09-18T17:38:35.817Z,97755.59
2022-09-18T17:43:41.460Z,97765.09
2022-09-18T17:48:49.318Z,97765.63
2022-09-18T17:54:00.510Z,97755.41
2022-09-18T17:59:07.520Z,97760.94
2022-09-18T18:04:15.859Z,97768.00
2022-09-18T18:09:20.420Z,97764.31
2022-09-18T18:14:25.927Z,97768.34
2022-09-18T18:19:33.191Z,97773.38
2022-09-18T18:24:38.528Z,97774.91
2022-09-18T18:29:44.036Z,97779.13
2022-09-18T18:34:51.207Z,97777.13
2022-09-18T18:39:55.808Z,97780.66
2022-09-18T18:45:01.366Z,97775.81
2022-09-18T18:50:12.515Z,97787.22
2022-09-18T18:55:17.954Z,97778.34
2022-09-18T19:00:27.361Z,97780.19
2022-09-18T19:05:35.196Z,97770.31
2022-09-18T19:10:39.703Z,97777.16
2022-09-18T19:15:44.259Z,97777.28
2022-09-18T19:20:53.735Z,97767.41
2022-09-18T19:26:00.139Z,97758.88
2022-09-18T19:31:06.860Z,97762.94
2022-09-18T19:36:14.299Z,97763.44
2022-09-18T19:41:24.641Z,97757.78
2022-09-18T19:46:40.728Z,97754.22
2022-09-18T19:51:49.319Z,97736.94
2022-09-18T19:56:53.867Z,97735.63
2022-09-18T20:01:58.792Z,97738.00
2022-09-18T20:07:06.182Z,97736.31
2022-09-18T20:12:12.806Z,97728.09
2022-09-18T20:17:17.403Z,97743.38
2022-09-18T20:22:24.564Z,97738.31
2022-09-18T20:27:29.097Z,97750.03
2022-09-18T20:32:33.663Z,97743.31
2022-09-18T20:37:40.868Z,97728.19
2022-09-18T20:42:45.488Z,97725.47
2022-09-18T20:47:49.919Z,97735.81
2022-09-18T20:53:06.204Z,97743.81
2022-09-18T20:58:11.421Z,97742.56
2022-09-18T21:03:17.570Z,97744.34
2022-09-18T21:08:25.980Z,97743.00
2022-09-18T21:13:31.480Z,97742.00
2022-09-18T21:18:37.567Z,97740.31
2022-09-18T21:23:58.581Z,97743.69
2022-09-18T21:29:05.247Z,97728.59
2022-09-18T21:34:09.684Z,97722.38
2022-09-18T21:39:17.155Z,97725.75
2022-09-18T21:44:27.031Z,97718.22
2022-09-18T21:49:32.930Z,97717.53
2022-09-18T21:54:40.035Z,97716.72
2022-09-18T21:59:44.779Z,97709.34
2022-09-18T22:04:49.386Z,97717.88
2022-09-18T22:09:56.816Z,97712.34
2022-09-18T22:15:01.272Z,97704.69
2022-09-18T22:20:07.233Z,97706.38
2022-09-18T22:25:15.448Z,97698.66
2022-09-18T22:30:20.200Z,97702.22
2022-09-18T22:35:24.628Z,97705.22
2022-09-18T22:40:31.645Z,97697.56
2022-09-18T22:45:36.141Z,97691.19
2022-09-18T22:50:40.834Z,97702.94
2022-09-18T22:55:48.180Z,97694.19
2022-09-18T23:00:52.563Z,97684.50
2022-09-18T23:05:56.931Z,97689.84
2022-09-18T23:11:08.614Z,97690.72
2022-09-18T23:16:15.169Z,97691.72
2022-09-18T23:21:19.998Z,97700.94
2022-09-18T23:26:31.127Z,97698.91
2022-09-18T23:31:37.715Z,97700.75
2022-09-18T23:36:44.808Z,97694.59
2022-09-18T23:41:52.280Z,97703.31
2022-09-18T23:46:57.501Z,97687.38
2022-09-18T23:52:02.711Z,97699.28
2022-09-18T23:57:09.969Z,97700.59
